sensor_id;sensor_type;location;lat;lon;timestamp;pressure;altitude;pressure_sealevel;temperature;humidity
1480;BME280;732;51.698;4.886;2022-11-14T00:01:32;101602.91;;;6.25;100.00
1480;BME280;732;51.698;4.886;2022-11-14T00:04:20;101586.84;;;6.14;100.00
1480;BME280;732;51.698;4.886;2022-11-14T00:07:15;101629.38;;;6.35;100.00
1480;BME280;732;51.698;4.886;2022-11-14T00:10:03;101705.06;;;6.80;100.00
1480;BME280;732;51.698;4.886;2022-11-14T00:12:54;101704.16;;;6.79;100.00
1480;BME280;732;51.698;4.886;2022-11-14T00:15:41;101670.91;;;6.53;100.00
1480;BME280;732;51.698;4.886;2022-11-14T00:18:30;101719.16;;;6.67;100.00
1480;BME280;732;51.698;4.886;2022-11-14T00:21:17;101692.63;;;6.55;100.00
1480;BME280;732;51.698;4.886;2022-11-14T00:24:05;101642.44;;;6.19;100.00
1480;BME280;732;51.698;4.886;2022-11-14T00:26:52;101713.69;;;6.61;100.00
1480;BME280;732;51.698;4.886;2022-11-14T00:29:42;101669.34;;;6.39;100.00
1480;BME280;732;51.698;4.886;2022-11-14T00:32:30;101703.31;;;6.61;100.00
1480;BME280;732;51.698;4.886;2022-11-14T00:35:18;101672.41;;;6.48;100.00
1480;BME280;732;51.698;4.886;2022-11-14T00:38:06;101703.97;;;6.57;100.00
1480;BME280;732;51.698;4.886;2022-11-14T00:40:53;101675.59;;;6.42;100.00
1480;BME280;732;51.698;4.886;2022-11-14T00:43:40;101698.44;;;6.49;100.00
1480;BME280;732;51.698;4.886;2022-11-14T00:46:29;101696.63;;;6.48;100.00
1480;BME280;732;51.698;4.886;2022-11-14T00:49:16;101645.09;;;6.21;100.00
1480;BME280;732;51.698;4.886;2022-11-14T00:52:04;101573.84;;;5.79;100.00
1480;BME280;732;51.698;4.886;2022-11-14T00:54:51;101479.69;;;5.27;100.00
1480;BME280;732;51.698;4.886;2022-11-14T00:57:38;101672.75;;;6.38;100.00
1480;BME280;732;51.698;4.886;2022-11-14T01:00:26;101413.63;;;4.84;100.00
1480;BME280;732;51.698;4.886;2022-11-14T01:03:13;101524.88;;;5.50;100.00
1480;BME280;732;51.698;4.886;2022-11-14T01:06:05;101658.75;;;6.34;100.00
1480;BME280;732;51.698;4.886;2022-11-14T01:08:54;101585.66;;;5.90;100.00
1480;BME280;732;51.698;4.886;2022-11-14T01:11:41;101619.75;;;5.98;100.00
1480;BME280;732;51.698;4.886;2022-11-14T01:14:28;101651.84;;;6.17;100.00
1480;BME280;732;51.698;4.886;2022-11-14T01:17:16;101459.84;;;5.10;100.00
1480;BME280;732;51.698;4.886;2022-11-14T01:20:03;101656.06;;;6.15;100.00
1480;BME280;732;51.698;4.886;2022-11-14T01:22:51;101523.97;;;5.49;100.00
1480;BME280;732;51.698;4.886;2022-11-14T01:25:41;101641.25;;;6.13;100.00
1480;BME280;732;51.698;4.886;2022-11-14T01:28:28;101547.03;;;5.61;100.00
1480;BME280;732;51.698;4.886;2022-11-14T01:31:19;101617.00;;;5.95;100.00
1480;BME280;732;51.698;4.886;2022-11-14T01:34:07;101603.25;;;5.79;100.00
1480;BME280;732;51.698;4.886;2022-11-14T01:36:54;101615.53;;;6.00;100.00
1480;BME280;732;51.698;4.886;2022-11-14T01:39:42;101605.00;;;5.97;100.00
1480;BME280;732;51.698;4.886;2022-11-14T01:42:30;101610.50;;;6.03;100.00
1480;BME280;732;51.698;4.886;2022-11-14T01:45:53;101607.75;;;6.00;100.00
1480;BME280;732;51.698;4.886;2022-11-14T01:48:43;101588.84;;;5.85;100.00
1480;BME280;732;51.698;4.886;2022-11-14T01:51:34;101621.31;;;5.94;100.00
1480;BME280;732;51.698;4.886;2022-11-14T01:54:26;101566.44;;;5.69;100.00
1480;BME280;732;51.698;4.886;2022-11-14T01:57:19;101588.78;;;5.83;100.00
1480;BME280;732;51.698;4.886;2022-11-14T02:00:11;101346.03;;;4.44;100.00
1480;BME280;732;51.698;4.886;2022-11-14T02:03:00;101466.13;;;5.15;100.00
1480;BME280;732;51.698;4.886;2022-11-14T02:05:48;101498.88;;;5.31;100.00
1480;BME280;732;51.698;4.886;2022-11-14T02:08:36;101593.78;;;5.80;100.00
1480;BME280;732;51.698;4.886;2022-11-14T02:11:23;101552.88;;;5.57;100.00
1480;BME280;732;51.698;4.886;2022-11-14T02:14:11;101545.38;;;5.45;100.00
1480;BME280;732;51.698;4.886;2022-11-14T02:17:00;101552.56;;;5.51;100.00
1480;BME280;732;51.698;4.886;2022-11-14T02:20:21;101529.06;;;5.30;100.00
1480;BME280;732;51.698;4.886;2022-11-14T02:23:13;101561.94;;;5.49;100.00
1480;BME280;732;51.698;4.886;2022-11-14T02:26:02;101556.56;;;5.44;100.00
1480;BME280;732;51.698;4.886;2022-11-14T02:28:49;101566.34;;;5.50;100.00
1480;BME280;732;51.698;4.886;2022-11-14T02:31:37;101559.94;;;5.43;100.00
1480;BME280;732;51.698;4.886;2022-11-14T02:34:25;101244.44;;;3.63;100.00
1480;BME280;732;51.698;4.886;2022-11-14T02:37:14;101235.19;;;3.51;100.00
1480;BME280;732;51.698;4.886;2022-11-14T02:40:01;101448.44;;;4.73;100.00
1480;BME280;732;51.698;4.886;2022-11-14T02:42:48;101558.97;;;5.41;100.00
1480;BME280;732;51.698;4.886;2022-11-14T02:45:35;101557.94;;;5.38;100.00
1480;BME280;732;51.698;4.886;2022-11-14T02:48:22;101276.31;;;3.80;100.00
1480;BME280;732;51.698;4.886;2022-11-14T02:51:09;101557.22;;;5.40;100.00
1480;BME280;732;51.698;4.886;2022-11-14T02:53:57;101475.72;;;5.00;100.00
1480;BME280;732;51.698;4.886;2022-11-14T02:56:44;101537.88;;;5.34;100.00
1480;BME280;732;51.698;4.886;2022-11-14T02:59:31;101555.53;;;5.41;100.00
1480;BME280;732;51.698;4.886;2022-11-14T03:02:18;101496.41;;;5.16;100.00
1480;BME280;732;51.698;4.886;2022-11-14T03:05:06;101379.66;;;4.44;100.00
1480;BME280;732;51.698;4.886;2022-11-14T03:07:53;101493.81;;;5.16;100.00
1480;BME280;732;51.698;4.886;2022-11-14T03:10:42;101212.56;;;3.47;100.00
1480;BME280;732;51.698;4.886;2022-11-14T03:13:30;101457.72;;;4.85;100.00
1480;BME280;732;51.698;4.886;2022-11-14T03:16:16;101521.66;;;5.20;100.00
1480;BME280;732;51.698;4.886;2022-11-14T03:19:03;101523.41;;;5.21;100.00
1480;BME280;732;51.698;4.886;2022-11-14T03:21:51;101509.03;;;5.10;100.00
1480;BME280;732;51.698;4.886;2022-11-14T03:24:38;101494.69;;;5.17;100.00
1480;BME280;732;51.698;4.886;2022-11-14T03:27:26;101434.69;;;4.74;100.00
1480;BME280;732;51.698;4.886;2022-11-14T03:30:14;101523.72;;;5.27;100.00
1480;BME280;732;51.698;4.886;2022-11-14T03:33:01;101443.00;;;4.84;100.00
1480;BME280;732;51.698;4.886;2022-11-14T03:35:48;101482.75;;;5.03;100.00
1480;BME280;732;51.698;4.886;2022-11-14T03:38:36;101355.94;;;4.35;100.00
1480;BME280;732;51.698;4.886;2022-11-14T03:41:23;101504.19;;;5.16;100.00
1480;BME280;732;51.698;4.886;2022-11-14T03:44:12;101465.16;;;4.96;100.00
1480;BME280;732;51.698;4.886;2022-11-14T03:46:59;101264.94;;;3.76;100.00
1480;BME280;732;51.698;4.886;2022-11-14T03:49:46;101315.63;;;4.07;100.00
1480;BME280;732;51.698;4.886;2022-11-14T03:52:33;101291.50;;;3.90;100.00
1480;BME280;732;51.698;4.886;2022-11-14T03:55:20;101491.44;;;5.03;100.00
1480;BME280;732;51.698;4.886;2022-11-14T03:58:08;101351.72;;;4.21;100.00
1480;BME280;732;51.698;4.886;2022-11-14T04:00:57;101457.91;;;4.72;100.00
1480;BME280;732;51.698;4.886;2022-11-14T04:03:44;101500.22;;;5.07;100.00
1480;BME280;732;51.698;4.886;2022-11-14T04:06:31;101483.03;;;4.91;100.00
1480;BME280;732;51.698;4.886;2022-11-14T04:09:19;101507.09;;;5.06;100.00
1480;BME280;732;51.698;4.886;2022-11-14T04:12:06;101209.19;;;3.32;100.00
1480;BME280;732;51.698;4.886;2022-11-14T04:15:00;101444.31;;;4.60;100.00
1480;BME280;732;51.698;4.886;2022-11-14T04:17:48;101499.03;;;5.00;100.00
1480;BME280;732;51.698;4.886;2022-11-14T04:20:35;101361.34;;;4.24;100.00
1480;BME280;732;51.698;4.886;2022-11-14T04:23:22;101409.50;;;4.54;100.00
1480;BME280;732;51.698;4.886;2022-11-14T04:26:09;101284.06;;;3.80;100.00
1480;BME280;732;51.698;4.886;2022-11-14T04:28:57;101457.97;;;4.90;100.00
1480;BME280;732;51.698;4.886;2022-11-14T04:31:44;101468.53;;;4.95;100.00
1480;BME280;732;51.698;4.886;2022-11-14T04:34:32;101456.16;;;4.89;100.00
1480;BME280;732;51.698;4.886;2022-11-14T04:37:20;101469.41;;;4.95;100.00
1480;BME280;732;51.698;4.886;2022-11-14T04:40:08;101457.31;;;4.78;100.00
1480;BME280;732;51.698;4.886;2022-11-14T04:42:56;101455.84;;;4.83;100.00
1480;BME280;732;51.698;4.886;2022-11-14T04:45:43;101439.06;;;4.75;100.00
1480;BME280;732;51.698;4.886;2022-11-14T04:48:30;101391.13;;;4.49;100.00
1480;BME280;732;51.698;4.886;2022-11-14T04:51:19;101448.44;;;4.73;100.00
1480;BME280;732;51.698;4.886;2022-11-14T04:54:08;101445.22;;;4.77;100.00
1480;BME280;732;51.698;4.886;2022-11-14T04:56:55;101456.88;;;4.86;100.00
1480;BME280;732;51.698;4.886;2022-11-14T04:59:42;101415.19;;;4.64;100.00
1480;BME280;732;51.698;4.886;2022-11-14T05:02:30;101357.16;;;4.26;100.00
1480;BME280;732;51.698;4.886;2022-11-14T05:05:18;101449.94;;;4.85;100.00
1480;BME280;732;51.698;4.886;2022-11-14T05:08:06;101198.53;;;3.42;100.00
1480;BME280;732;51.698;4.886;2022-11-14T05:10:53;101277.47;;;3.85;100.00
1480;BME280;732;51.698;4.886;2022-11-14T05:13:40;101362.78;;;4.35;100.00
1480;BME280;732;51.698;4.886;2022-11-14T05:16:27;101421.72;;;4.74;100.00
1480;BME280;732;51.698;4.886;2022-11-14T05:19:15;101239.16;;;3.78;100.00
1480;BME280;732;51.698;4.886;2022-11-14T05:22:01;101307.84;;;4.23;100.00
1480;BME280;732;51.698;4.886;2022-11-14T05:24:50;101363.06;;;4.57;100.00
1480;BME280;732;51.698;4.886;2022-11-14T05:27:38;101347.66;;;4.42;100.00
1480;BME280;732;51.698;4.886;2022-11-14T05:30:25;101430.19;;;4.88;100.00
1480;BME280;732;51.698;4.886;2022-11-14T05:33:14;101427.53;;;4.86;100.00
1480;BME280;732;51.698;4.886;2022-11-14T05:36:02;101248.06;;;3.83;100.00
1480;BME280;732;51.698;4.886;2022-11-14T05:38:49;101386.59;;;4.45;100.00
1480;BME280;732;51.698;4.886;2022-11-14T05:41:38;101216.34;;;3.53;100.00
1480;BME280;732;51.698;4.886;2022-11-14T05:44:27;101245.56;;;3.68;100.00
1480;BME280;732;51.698;4.886;2022-11-14T05:47:17;101126.56;;;3.00;100.00
1480;BME280;732;51.698;4.886;2022-11-14T05:50:06;101347.84;;;4.29;100.00
1480;BME280;732;51.698;4.886;2022-11-14T05:52:53;101411.81;;;4.65;100.00
1480;BME280;732;51.698;4.886;2022-11-14T05:55:40;101380.63;;;4.46;100.00
1480;BME280;732;51.698;4.886;2022-11-14T05:58:30;101438.31;;;4.77;100.00
1480;BME280;732;51.698;4.886;2022-11-14T06:01:18;101231.44;;;3.62;100.00
1480;BME280;732;51.698;4.886;2022-11-14T06:04:06;101368.34;;;4.42;100.00
1480;BME280;732;51.698;4.886;2022-11-14T06:06:53;101387.00;;;4.53;100.00
1480;BME280;732;51.698;4.886;2022-11-14T06:09:41;101196.19;;;3.46;100.00
1480;BME280;732;51.698;4.886;2022-11-14T06:12:30;101286.56;;;3.95;100.00
1480;BME280;732;51.698;4.886;2022-11-14T06:15:19;101316.47;;;4.06;100.00
1480;BME280;732;51.698;4.886;2022-11-14T06:18:07;101387.38;;;4.43;100.00
1480;BME280;732;51.698;4.886;2022-11-14T06:20:58;101258.56;;;3.54;100.00
1480;BME280;732;51.698;4.886;2022-11-14T06:23:47;101320.84;;;3.91;100.00
1480;BME280;732;51.698;4.886;2022-11-14T06:26:34;101436.56;;;4.60;100.00
1480;BME280;732;51.698;4.886;2022-11-14T06:29:22;101433.25;;;4.63;100.00
1480;BME280;732;51.698;4.886;2022-11-14T06:32:11;101092.28;;;2.54;100.00
1480;BME280;732;51.698;4.886;2022-11-14T06:34:59;101442.41;;;4.56;100.00
1480;BME280;732;51.698;4.886;2022-11-14T06:37:46;101175.63;;;3.00;100.00
1480;BME280;732;51.698;4.886;2022-11-14T06:40:33;101387.88;;;4.20;100.00
1480;BME280;732;51.698;4.886;2022-11-14T06:43:21;101323.88;;;3.83;100.00
1480;BME280;732;51.698;4.886;2022-11-14T06:46:11;101391.50;;;4.23;100.00
1480;BME280;732;51.698;4.886;2022-11-14T06:49:00;101418.25;;;4.24;100.00
1480;BME280;732;51.698;4.886;2022-11-14T06:51:47;101326.81;;;3.73;100.00
1480;BME280;732;51.698;4.886;2022-11-14T06:54:33;101444.22;;;4.41;100.00
1480;BME280;732;51.698;4.886;2022-11-14T06:57:20;101406.78;;;4.19;100.00
1480;BME280;732;51.698;4.886;2022-11-14T07:00:09;101431.03;;;4.37;100.00
1480;BME280;732;51.698;4.886;2022-11-14T07:02:57;101437.88;;;4.36;100.00
1480;BME280;732;51.698;4.886;2022-11-14T07:05:46;101111.31;;;2.56;100.00
1480;BME280;732;51.698;4.886;2022-11-14T07:08:33;101406.53;;;4.14;100.00
1480;BME280;732;51.698;4.886;2022-11-14T07:11:24;101304.19;;;3.53;100.00
1480;BME280;732;51.698;4.886;2022-11-14T07:14:14;101427.56;;;4.20;100.00
1480;BME280;732;51.698;4.886;2022-11-14T07:17:03;101255.34;;;3.26;100.00
1480;BME280;732;51.698;4.886;2022-11-14T07:19:50;101401.88;;;4.07;100.00
1480;BME280;732;51.698;4.886;2022-11-14T07:22:39;101328.19;;;3.67;100.00
1480;BME280;732;51.698;4.886;2022-11-14T07:25:26;101430.53;;;4.28;100.00
1480;BME280;732;51.698;4.886;2022-11-14T07:28:13;101241.94;;;3.17;100.00
1480;BME280;732;51.698;4.886;2022-11-14T07:31:02;101424.56;;;4.29;100.00
1480;BME280;732;51.698;4.886;2022-11-14T07:33:50;101279.25;;;3.54;100.00
1480;BME280;732;51.698;4.886;2022-11-14T07:36:37;101402.09;;;4.28;100.00
1480;BME280;732;51.698;4.886;2022-11-14T07:39:25;101419.69;;;4.35;100.00
1480;BME280;732;51.698;4.886;2022-11-14T07:42:13;101381.78;;;4.19;100.00
1480;BME280;732;51.698;4.886;2022-11-14T07:45:00;101399.25;;;4.39;100.00
1480;BME280;732;51.698;4.886;2022-11-14T07:47:49;101398.50;;;4.42;100.00
1480;BME280;732;51.698;4.886;2022-11-14T07:50:37;101337.53;;;4.13;100.00
1480;BME280;732;51.698;4.886;2022-11-14T07:53:25;101334.06;;;4.13;100.00
1480;BME280;732;51.698;4.886;2022-11-14T07:56:14;101196.50;;;3.36;100.00
1480;BME280;732;51.698;4.886;2022-11-14T07:59:02;101358.91;;;4.27;100.00
1480;BME280;732;51.698;4.886;2022-11-14T08:01:49;101340.59;;;4.22;100.00
1480;BME280;732;51.698;4.886;2022-11-14T08:04:36;101237.34;;;3.75;100.00
1480;BME280;732;51.698;4.886;2022-11-14T08:07:23;101417.97;;;4.85;100.00
1480;BME280;732;51.698;4.886;2022-11-14T08:10:11;101283.13;;;4.12;100.00
1480;BME280;732;51.698;4.886;2022-11-14T08:13:03;101431.38;;;4.94;100.00
1480;BME280;732;51.698;4.886;2022-11-14T08:16:10;101378.09;;;4.81;100.00
1480;BME280;732;51.698;4.886;2022-11-14T08:18:59;101291.38;;;4.38;100.00
1480;BME280;732;51.698;4.886;2022-11-14T08:21:50;101413.44;;;5.15;100.00
1480;BME280;732;51.698;4.886;2022-11-14T08:24:37;101076.44;;;3.28;100.00
1480;BME280;732;51.698;4.886;2022-11-14T08:27:25;101327.88;;;4.78;100.00
1480;BME280;732;51.698;4.886;2022-11-14T08:30:14;101322.25;;;4.86;100.00
1480;BME280;732;51.698;4.886;2022-11-14T08:33:02;101395.59;;;5.38;100.00
1480;BME280;732;51.698;4.886;2022-11-14T08:35:49;101390.09;;;5.50;100.00
1480;BME280;732;51.698;4.886;2022-11-14T08:38:36;101344.34;;;5.33;100.00
1480;BME280;732;51.698;4.886;2022-11-14T08:41:23;101392.28;;;5.60;100.00
1480;BME280;732;51.698;4.886;2022-11-14T08:44:11;101351.53;;;5.38;100.00
1480;BME280;732;51.698;4.886;2022-11-14T08:47:00;101368.28;;;5.64;100.00
1480;BME280;732;51.698;4.886;2022-11-14T08:49:48;101035.84;;;3.77;100.00
1480;BME280;732;51.698;4.886;2022-11-14T08:52:35;101314.63;;;5.44;100.00
1480;BME280;732;51.698;4.886;2022-11-14T08:55:22;101207.59;;;4.89;100.00
1480;BME280;732;51.698;4.886;2022-11-14T08:58:09;101258.78;;;5.31;100.00
1480;BME280;732;51.698;4.886;2022-11-14T09:01:01;101288.53;;;5.58;100.00
1480;BME280;732;51.698;4.886;2022-11-14T09:03:50;101339.69;;;5.99;100.00
1480;BME280;732;51.698;4.886;2022-11-14T09:06:44;101362.81;;;6.33;100.00
1480;BME280;732;51.698;4.886;2022-11-14T09:09:32;101363.25;;;6.43;100.00
1480;BME280;732;51.698;4.886;2022-11-14T09:12:19;101359.13;;;6.48;100.00
1480;BME280;732;51.698;4.886;2022-11-14T09:15:07;101360.47;;;6.59;100.00
1480;BME280;732;51.698;4.886;2022-11-14T09:17:55;101350.41;;;6.67;100.00
1480;BME280;732;51.698;4.886;2022-11-14T09:20:44;101297.09;;;6.54;100.00
1480;BME280;732;51.698;4.886;2022-11-14T09:23:31;101361.34;;;7.01;100.00
1480;BME280;732;51.698;4.886;2022-11-14T09:26:19;101318.84;;;6.99;100.00
1480;BME280;732;51.698;4.886;2022-11-14T09:29:06;101347.16;;;7.36;100.00
1480;BME280;732;51.698;4.886;2022-11-14T09:31:55;101364.94;;;7.69;100.00
1480;BME280;732;51.698;4.886;2022-11-14T09:34:44;101165.97;;;6.88;100.00
1480;BME280;732;51.698;4.886;2022-11-14T09:37:32;101314.75;;;7.96;100.00
1480;BME280;732;51.698;4.886;2022-11-14T09:40:19;101362.25;;;8.36;100.00
1480;BME280;732;51.698;4.886;2022-11-14T09:43:24;101363.81;;;8.56;100.00
1480;BME280;732;51.698;4.886;2022-11-14T09:46:21;101358.28;;;8.72;100.00
1480;BME280;732;51.698;4.886;2022-11-14T09:49:26;101209.22;;;8.04;100.00
1480;BME280;732;51.698;4.886;2022-11-14T09:52:26;101173.59;;;8.03;100.00
1480;BME280;732;51.698;4.886;2022-11-14T09:55:19;101059.13;;;7.51;100.00
1480;BME280;732;51.698;4.886;2022-11-14T09:58:15;101349.81;;;9.32;100.00
1480;BME280;732;51.698;4.886;2022-11-14T10:01:07;101060.16;;;7.81;100.00
1480;BME280;732;51.698;4.886;2022-11-14T10:04:02;101282.94;;;9.34;100.00
1480;BME280;732;51.698;4.886;2022-11-14T10:07:00;101337.47;;;9.83;100.00
1480;BME280;732;51.698;4.886;2022-11-14T10:09:59;101355.16;;;10.23;100.00
1480;BME280;732;51.698;4.886;2022-11-14T10:12:57;101229.75;;;9.90;100.00
1480;BME280;732;51.698;4.886;2022-11-14T10:15:53;101275.63;;;10.44;100.00
1480;BME280;732;51.698;4.886;2022-11-14T10:19:14;101339.38;;;11.19;100.00
1480;BME280;732;51.698;4.886;2022-11-14T10:22:17;101283.34;;;11.10;100.00
1480;BME280;732;51.698;4.886;2022-11-14T10:25:21;101312.13;;;11.48;100.00
1480;BME280;732;51.698;4.886;2022-11-14T10:28:40;101276.59;;;11.60;100.00
1480;BME280;732;51.698;4.886;2022-11-14T10:31:41;101237.44;;;11.64;100.00
1480;BME280;732;51.698;4.886;2022-11-14T10:34:34;101100.19;;;11.07;100.00
1480;BME280;732;51.698;4.886;2022-11-14T10:37:26;101255.03;;;12.16;100.00
1480;BME280;732;51.698;4.886;2022-11-14T10:40:20;101147.72;;;11.73;100.00
1480;BME280;732;51.698;4.886;2022-11-14T10:43:23;101143.69;;;11.91;100.00
1480;BME280;732;51.698;4.886;2022-11-14T10:46:16;101234.09;;;12.68;100.00
1480;BME280;732;51.698;4.886;2022-11-14T10:49:15;101161.41;;;12.57;100.00
1480;BME280;732;51.698;4.886;2022-11-14T10:52:08;101268.50;;;13.43;100.00
1480;BME280;732;51.698;4.886;2022-11-14T10:54:59;101145.22;;;12.86;100.00
1480;BME280;732;51.698;4.886;2022-11-14T10:57:50;101262.66;;;13.65;100.00
1480;BME280;732;51.698;4.886;2022-11-14T11:00:39;101186.22;;;13.44;100.00
1480;BME280;732;51.698;4.886;2022-11-14T11:03:40;101126.56;;;13.31;100.00
1480;BME280;732;51.698;4.886;2022-11-14T11:06:28;101059.78;;;13.03;100.00
1480;BME280;732;51.698;4.886;2022-11-14T11:09:18;101248.34;;;14.17;100.00
1480;BME280;732;51.698;4.886;2022-11-14T11:12:41;101222.81;;;14.05;100.00
1480;BME280;732;51.698;4.886;2022-11-14T11:15:40;101214.22;;;14.21;100.00
1480;BME280;732;51.698;4.886;2022-11-14T11:18:29;101068.06;;;13.43;100.00
1480;BME280;732;51.698;4.886;2022-11-14T11:21:19;101079.56;;;13.57;100.00
1480;BME280;732;51.698;4.886;2022-11-14T11:24:08;101224.97;;;14.43;100.00
1480;BME280;732;51.698;4.886;2022-11-14T11:27:17;101211.16;;;14.71;100.00
1480;BME280;732;51.698;4.886;2022-11-14T11:30:19;101209.50;;;14.86;100.00
1480;BME280;732;51.698;4.886;2022-11-14T11:33:23;101147.88;;;14.53;100.00
1480;BME280;732;51.698;4.886;2022-11-14T11:36:15;101149.72;;;14.63;100.00
1480;BME280;732;51.698;4.886;2022-11-14T11:39:03;101164.66;;;14.73;100.00
1480;BME280;732;51.698;4.886;2022-11-14T11:41:52;101033.63;;;14.13;100.00
1480;BME280;732;51.698;4.886;2022-11-14T11:45:00;101195.72;;;15.37;100.00
1480;BME280;732;51.698;4.886;2022-11-14T11:47:55;101190.56;;;15.48;100.00
1480;BME280;732;51.698;4.886;2022-11-14T11:50:46;101172.09;;;15.45;100.00
1480;BME280;732;51.698;4.886;2022-11-14T11:53:38;101151.81;;;15.30;100.00
1480;BME280;732;51.698;4.886;2022-11-14T11:56:30;101170.38;;;15.50;100.00
1480;BME280;732;51.698;4.886;2022-11-14T11:59:26;100915.38;;;14.19;100.00
1480;BME280;732;51.698;4.886;2022-11-14T12:02:21;101172.19;;;15.73;100.00
1480;BME280;732;51.698;4.886;2022-11-14T12:05:15;101083.31;;;15.24;100.00
1480;BME280;732;51.698;4.886;2022-11-14T12:08:07;101071.91;;;15.20;100.00
1480;BME280;732;51.698;4.886;2022-11-14T12:11:09;101160.81;;;15.85;100.00
1480;BME280;732;51.698;4.886;2022-11-14T12:21:02;101154.66;;;16.10;100.00
1480;BME280;732;51.698;4.886;2022-11-14T12:27:39;100991.13;;;14.98;100.00
1480;BME280;732;51.698;4.886;2022-11-14T12:30:30;101023.69;;;15.29;100.00
1480;BME280;732;51.698;4.886;2022-11-14T12:33:22;101152.06;;;16.11;100.00
1480;BME280;732;51.698;4.886;2022-11-14T12:36:11;101138.84;;;16.02;100.00
1480;BME280;732;51.698;4.886;2022-11-14T12:38:59;101116.84;;;15.70;100.00
1480;BME280;732;51.698;4.886;2022-11-14T12:41:48;101150.28;;;15.98;100.00
1480;BME280;732;51.698;4.886;2022-11-14T12:44:37;101133.56;;;15.98;100.00
1480;BME280;732;51.698;4.886;2022-11-14T12:47:25;101136.22;;;16.27;100.00
1480;BME280;732;51.698;4.886;2022-11-14T12:50:39;101056.25;;;15.85;100.00
1480;BME280;732;51.698;4.886;2022-11-14T12:53:41;101137.97;;;16.32;100.00
1480;BME280;732;51.698;4.886;2022-11-14T12:56:59;101131.81;;;16.44;100.00
1480;BME280;732;51.698;4.886;2022-11-14T13:00:03;100849.88;;;14.84;100.00
1480;BME280;732;51.698;4.886;2022-11-14T13:03:16;101125.66;;;16.31;100.00
1480;BME280;732;51.698;4.886;2022-11-14T13:06:17;101116.00;;;16.22;100.00
1480;BME280;732;51.698;4.886;2022-11-14T13:09:52;101126.53;;;16.35;100.00
1480;BME280;732;51.698;4.886;2022-11-14T13:12:56;100991.22;;;15.71;100.00
1480;BME280;732;51.698;4.886;2022-11-14T13:16:02;101108.06;;;16.19;100.00
1480;BME280;732;51.698;4.886;2022-11-14T13:19:17;101097.53;;;16.07;100.00
1480;BME280;732;51.698;4.886;2022-11-14T13:22:40;101108.97;;;16.26;100.00
1480;BME280;732;51.698;4.886;2022-11-14T13:25:28;101065.00;;;16.16;100.00
1480;BME280;732;51.698;4.886;2022-11-14T13:28:46;101071.19;;;15.92;100.00
1480;BME280;732;51.698;4.886;2022-11-14T13:31:47;101086.09;;;15.78;100.00
1480;BME280;732;51.698;4.886;2022-11-14T13:34:42;101095.75;;;15.76;100.00
1480;BME280;732;51.698;4.886;2022-11-14T13:37:52;101043.91;;;15.48;100.00
1480;BME280;732;51.698;4.886;2022-11-14T13:40:48;101087.00;;;15.86;100.00
1480;BME280;732;51.698;4.886;2022-11-14T13:43:56;101077.31;;;15.82;100.00
1480;BME280;732;51.698;4.886;2022-11-14T13:47:09;100926.19;;;14.94;100.00
1480;BME280;732;51.698;4.886;2022-11-14T13:50:04;100802.44;;;14.37;100.00
1480;BME280;732;51.698;4.886;2022-11-14T13:52:55;100922.69;;;15.10;100.00
1480;BME280;732;51.698;4.886;2022-11-14T13:55:59;100894.66;;;15.21;100.00
1480;BME280;732;51.698;4.886;2022-11-14T13:59:23;101011.44;;;15.69;100.00
1480;BME280;732;51.698;4.886;2022-11-14T14:02:57;101039.53;;;15.56;100.00
1480;BME280;732;51.698;4.886;2022-11-14T14:09:20;101005.28;;;15.46;100.00
1480;BME280;732;51.698;4.886;2022-11-14T14:12:29;101027.22;;;15.51;100.00
1480;BME280;732;51.698;4.886;2022-11-14T14:15:26;101015.81;;;15.55;100.00
1480;BME280;732;51.698;4.886;2022-11-14T14:18:26;100964.81;;;15.01;100.00
1480;BME280;732;51.698;4.886;2022-11-14T14:21:31;100762.91;;;14.01;100.00
1480;BME280;732;51.698;4.886;2022-11-14T14:24:44;101041.28;;;15.60;100.00
1480;BME280;732;51.698;4.886;2022-11-14T14:27:52;101046.56;;;15.56;100.00
1480;BME280;732;51.698;4.886;2022-11-14T14:31:03;100968.31;;;14.99;100.00
1480;BME280;732;51.698;4.886;2022-11-14T14:33:55;101034.25;;;15.50;100.00
1480;BME280;732;51.698;4.886;2022-11-14T14:36:49;101039.53;;;15.46;100.00
1480;BME280;732;51.698;4.886;2022-11-14T14:39:37;101028.09;;;15.56;100.00
1480;BME280;732;51.698;4.886;2022-11-14T14:42:26;100985.03;;;15.37;100.00
1480;BME280;732;51.698;4.886;2022-11-14T14:45:21;101021.97;;;15.51;100.00
1480;BME280;732;51.698;4.886;2022-11-14T14:48:14;101010.47;;;15.26;100.00
1480;BME280;732;51.698;4.886;2022-11-14T14:51:02;100986.75;;;15.06;100.00
1480;BME280;732;51.698;4.886;2022-11-14T14:53:51;100905.03;;;14.48;100.00
1480;BME280;732;51.698;4.886;2022-11-14T14:56:38;100846.91;;;13.84;100.00
1480;BME280;732;51.698;4.886;2022-11-14T14:59:28;100966.31;;;14.31;100.00
1480;BME280;732;51.698;4.886;2022-11-14T15:02:17;100965.25;;;14.05;100.00
1480;BME280;732;51.698;4.886;2022-11-14T15:05:07;101037.28;;;14.30;100.00
1480;BME280;732;51.698;4.886;2022-11-14T15:07:58;100995.78;;;13.85;100.00
1480;BME280;732;51.698;4.886;2022-11-14T15:10:47;100876.97;;;13.04;100.00
1480;BME280;732;51.698;4.886;2022-11-14T15:13:34;101027.25;;;13.78;100.00
1480;BME280;732;51.698;4.886;2022-11-14T15:16:24;100884.34;;;12.54;100.00
1480;BME280;732;51.698;4.886;2022-11-14T15:19:15;100968.53;;;12.81;100.00
1480;BME280;732;51.698;4.886;2022-11-14T15:22:24;100814.28;;;11.66;100.00
1480;BME280;732;51.698;4.886;2022-11-14T15:25:18;101010.25;;;12.60;100.00
1480;BME280;732;51.698;4.886;2022-11-14T15:28:18;100885.97;;;11.76;100.00
1480;BME280;732;51.698;4.886;2022-11-14T15:31:11;100745.75;;;10.75;100.00
1480;BME280;732;51.698;4.886;2022-11-14T15:34:04;101019.13;;;12.07;100.00
1480;BME280;732;51.698;4.886;2022-11-14T15:37:22;101020.69;;;11.96;100.00
1480;BME280;732;51.698;4.886;2022-11-14T15:40:17;101042.28;;;11.81;100.00
1480;BME280;732;51.698;4.886;2022-11-14T15:43:36;100968.06;;;11.27;100.00
1480;BME280;732;51.698;4.886;2022-11-14T15:46:40;101039.25;;;11.57;100.00